Time;durP1;ratioP1;P1;durP2;ratioP2;P2;SDS_P1;SDS_P2;PMS_P1;PMS_P2;Temp;Humidity;BMP_temperature;BMP_pressure;BME280_temperature;BME280_humidity;BME280_pressure;Samples;Min_cycle;Max_cycle;Signal;HPM_P1;HPM_P2
2022/01/11 00:00:50;;;;;;;37.25;31.45;;;9.60;99.90;;;;;;5067066;28;20036;-65
2022/01/11 00:03:18;;;;;;;34.95;28.30;;;9.60;99.90;;;;;;5067249;28;20028;-64
2022/01/11 00:05:52;;;;;;;27.80;24.20;;;9.60;99.90;;;;;;5066997;28;20495;-64
2022/01/11 00:08:19;;;;;;;30.60;25.17;;;9.50;99.90;;;;;;5067592;28;20032;-64
2022/01/11 00:10:52;;;;;;;33.80;27.33;;;9.50;99.90;;;;;;5069238;28;20039;-64
2022/01/11 00:13:20;;;;;;;34.65;30.95;;;9.50;99.90;;;;;;5066890;28;20390;-64
2022/01/11 00:15:47;;;;;;;35.58;30.85;;;9.50;99.90;;;;;;5066828;28;20075;-64
2022/01/11 00:18:14;;;;;;;43.35;33.28;;;9.50;99.90;;;;;;5066878;28;20032;-64
2022/01/11 00:20:39;;;;;;;49.35;34.55;;;9.50;99.90;;;;;;5068544;28;20550;-64
2022/01/11 00:25:34;;;;;;;30.83;25.95;;;9.50;99.90;;;;;;5069689;28;20020;-64
2022/01/11 00:28:00;;;;;;;33.08;25.42;;;9.50;99.90;;;;;;5068309;28;20021;-63
2022/01/11 00:30:35;;;;;;;27.13;23.13;;;9.50;99.90;;;;;;5068591;28;20081;-63
2022/01/11 00:33:05;;;;;;;28.88;24.33;;;9.50;99.90;;;;;;5070739;28;20033;-64
2022/01/11 00:35:40;;;;;;;26.88;23.98;;;9.50;99.90;;;;;;5056315;28;20037;-64
2022/01/11 00:38:07;;;;;;;34.25;28.73;;;9.50;99.90;;;;;;5072744;28;20040;-64
2022/01/11 00:40:33;;;;;;;28.02;23.15;;;9.50;99.90;;;;;;5072873;28;20098;-64
2022/01/11 00:42:59;;;;;;;26.35;23.48;;;9.40;99.90;;;;;;5070298;28;20490;-64
2022/01/11 00:45:27;;;;;;;26.23;23.42;;;9.50;99.90;;;;;;5069960;28;20507;-64
2022/01/11 00:47:54;;;;;;;30.23;26.40;;;9.50;99.90;;;;;;5070175;28;20021;-63
2022/01/11 00:50:20;;;;;;;29.65;24.88;;;9.50;99.90;;;;;;5072017;28;20403;-64
2022/01/11 00:52:46;;;;;;;32.25;28.85;;;9.40;99.90;;;;;;5072388;28;20021;-64
2022/01/11 00:55:13;;;;;;;26.60;22.00;;;9.40;99.90;;;;;;5069875;28;20441;-63
2022/01/11 00:57:39;;;;;;;26.52;21.65;;;9.40;99.90;;;;;;5068560;28;20376;-64
2022/01/11 01:00:08;;;;;;;22.20;18.55;;;9.40;99.90;;;;;;5071153;28;20036;-64
2022/01/11 01:02:35;;;;;;;30.48;23.48;;;9.40;99.90;;;;;;5070118;28;20032;-64
2022/01/11 01:05:02;;;;;;;23.55;21.02;;;9.40;99.90;;;;;;5073462;28;20024;-66
2022/01/11 01:07:27;;;;;;;27.00;22.13;;;9.30;99.90;;;;;;5071906;28;20421;-64
2022/01/11 01:10:06;;;;;;;27.42;21.63;;;9.30;99.90;;;;;;5069902;28;20112;-64
2022/01/11 01:12:33;;;;;;;27.95;25.00;;;9.30;99.90;;;;;;5069525;28;20115;-64
2022/01/11 01:14:59;;;;;;;35.42;26.52;;;9.30;99.90;;;;;;5071100;28;20483;-63
2022/01/11 01:17:26;;;;;;;38.30;27.55;;;9.20;99.90;;;;;;5070373;28;20074;-64
2022/01/11 01:19:52;;;;;;;44.08;32.28;;;9.20;99.90;;;;;;5072555;28;20104;-64
2022/01/11 01:22:18;;;;;;;54.58;39.78;;;9.30;99.90;;;;;;5069473;28;20108;-64
2022/01/11 01:24:43;;;;;;;43.67;35.47;;;9.20;99.90;;;;;;5069277;28;20044;-64
2022/01/11 01:27:09;;;;;;;34.97;26.75;;;9.20;99.90;;;;;;5069237;28;20086;-64
2022/01/11 01:29:35;;;;;;;42.00;30.20;;;9.20;99.90;;;;;;5069467;28;20040;-63
2022/01/11 01:32:01;;;;;;;35.85;27.00;;;9.20;99.90;;;;;;5072911;28;20484;-64
2022/01/11 01:34:27;;;;;;;47.85;39.72;;;9.20;99.90;;;;;;5070895;28;20056;-64
2022/01/11 01:36:53;;;;;;;39.05;33.38;;;9.20;99.90;;;;;;5067945;28;20479;-64
2022/01/11 01:39:19;;;;;;;48.53;40.25;;;9.20;99.90;;;;;;5070482;28;20020;-64
2022/01/11 01:41:46;;;;;;;39.58;34.65;;;9.20;99.90;;;;;;5067700;28;20454;-64
2022/01/11 01:44:13;;;;;;;54.97;45.70;;;9.20;99.90;;;;;;5071115;28;20082;-64
2022/01/11 01:46:40;;;;;;;41.60;35.15;;;9.20;99.90;;;;;;5072508;28;20028;-64
2022/01/11 01:49:07;;;;;;;34.03;30.33;;;9.20;99.90;;;;;;5068399;28;20383;-65
2022/01/11 01:51:32;;;;;;;38.72;30.48;;;9.20;99.90;;;;;;5069200;28;20107;-64
2022/01/11 01:53:58;;;;;;;52.15;39.70;;;9.10;99.90;;;;;;5070516;28;20096;-64
2022/01/11 01:56:25;;;;;;;52.90;39.80;;;9.10;99.90;;;;;;5069825;28;20480;-64
2022/01/11 01:58:51;;;;;;;35.83;29.83;;;9.20;99.90;;;;;;5071908;28;20514;-62
2022/01/11 02:01:17;;;;;;;38.30;30.65;;;9.20;99.90;;;;;;5068773;28;20017;-64
2022/01/11 02:03:44;;;;;;;41.38;35.00;;;9.10;99.90;;;;;;5068384;28;20123;-64
2022/01/11 02:06:14;;;;;;;38.67;30.70;;;9.10;99.90;;;;;;5068634;28;20090;-64
2022/01/11 02:08:42;;;;;;;43.63;32.60;;;9.00;99.90;;;;;;5069028;28;20410;-64
2022/01/11 02:11:08;;;;;;;38.65;31.27;;;8.90;99.90;;;;;;5071111;28;20021;-64
2022/01/11 02:13:34;;;;;;;47.38;32.40;;;8.90;99.90;;;;;;5071270;28;20117;-64
2022/01/11 02:16:01;;;;;;;52.15;34.08;;;8.90;99.90;;;;;;5068281;28;20443;-64
2022/01/11 02:18:27;;;;;;;34.38;28.85;;;8.90;99.90;;;;;;5069196;28;20136;-64
2022/01/11 02:20:58;;;;;;;45.45;33.20;;;8.80;99.90;;;;;;5068158;28;20108;-64
2022/01/11 02:23:27;;;;;;;44.50;32.28;;;8.90;99.90;;;;;;5069722;28;20044;-64
2022/01/11 02:25:53;;;;;;;44.17;31.52;;;8.80;99.90;;;;;;5072424;28;20490;-63
2022/01/11 02:28:21;;;;;;;46.35;32.72;;;8.70;99.90;;;;;;5068218;28;20048;-63
2022/01/11 02:30:48;;;;;;;39.85;28.77;;;8.70;99.90;;;;;;5068042;28;20028;-64
2022/01/11 02:33:32;;;;;;;49.33;35.55;;;8.70;99.90;;;;;;5069045;28;20182;-64
2022/01/11 02:35:59;;;;;;;41.08;28.95;;;8.60;99.90;;;;;;5068451;28;20036;-63
2022/01/11 02:38:25;;;;;;;62.78;38.83;;;8.40;99.90;;;;;;5069136;28;20521;-64
2022/01/11 02:40:51;;;;;;;64.88;41.65;;;8.10;99.90;;;;;;5070915;28;20021;-64
2022/01/11 02:43:16;;;;;;;112.07;66.07;;;8.00;99.90;;;;;;5066540;28;20056;-63
2022/01/11 02:45:42;;;;;;;238.23;103.53;;;8.00;99.90;;;;;;5069569;28;20552;-64
2022/01/11 02:48:08;;;;;;;121.55;36.80;;;8.00;99.90;;;;;;5067291;28;20036;-64
2022/01/11 02:50:34;;;;;;;239.60;50.63;;;8.10;99.90;;;;;;5068366;28;20016;-64
2022/01/11 02:52:59;;;;;;;162.00;35.28;;;8.20;99.90;;;;;;5071710;28;20032;-63
2022/01/11 02:55:25;;;;;;;207.63;45.13;;;8.20;99.90;;;;;;5067452;28;20036;-64
2022/01/11 02:57:50;;;;;;;57.38;32.63;;;8.10;99.90;;;;;;5069054;28;20415;-64
2022/01/11 03:00:21;;;;;;;225.35;43.15;;;8.10;99.90;;;;;;5067367;28;20021;-64
2022/01/11 03:02:47;;;;;;;168.07;40.33;;;7.90;99.90;;;;;;5069269;28;20090;-64
2022/01/11 03:05:13;;;;;;;139.18;43.20;;;7.80;99.90;;;;;;5070087;28;20028;-64
2022/01/11 03:07:41;;;;;;;387.35;55.50;;;7.60;99.90;;;;;;5069250;28;20033;-64
2022/01/11 03:10:55;;;;;;;143.23;35.58;;;7.60;99.90;;;;;;5067448;28;20086;-64
2022/01/11 03:12:55;;;;;;;129.02;32.60;;;7.60;99.90;;;;;;5061533;28;20060;-64
2022/01/11 03:15:21;;;;;;;152.63;39.85;;;7.60;99.90;;;;;;5067746;28;20028;-64
2022/01/11 03:17:47;;;;;;;263.30;48.47;;;7.50;99.90;;;;;;5067046;28;20032;-64
2022/01/11 03:20:13;;;;;;;197.27;39.75;;;7.40;99.90;;;;;;5070128;28;20027;-64
2022/01/11 03:22:38;;;;;;;137.18;39.40;;;7.30;99.90;;;;;;5069129;28;20056;-64
2022/01/11 03:25:06;;;;;;;231.90;40.63;;;7.20;99.90;;;;;;5067481;28;20114;-63
2022/01/11 03:27:33;;;;;;;99.07;34.80;;;7.20;99.90;;;;;;5067188;28;20060;-64
2022/01/11 03:29:58;;;;;;;93.85;44.75;;;7.00;99.90;;;;;;5067505;28;20149;-64
2022/01/11 03:32:24;;;;;;;99.70;38.05;;;6.90;99.90;;;;;;5068399;28;20441;-62
2022/01/11 03:34:50;;;;;;;89.13;32.83;;;6.90;99.90;;;;;;5070677;28;20048;-64
2022/01/11 03:37:17;;;;;;;62.22;31.15;;;6.70;99.90;;;;;;5068562;28;20032;-63
2022/01/11 03:39:44;;;;;;;126.95;33.63;;;6.70;99.90;;;;;;5066985;28;20029;-63
2022/01/11 03:42:10;;;;;;;92.18;34.67;;;6.70;99.90;;;;;;5068555;28;20032;-64
2022/01/11 03:44:36;;;;;;;160.27;44.90;;;6.70;99.90;;;;;;5067125;28;20041;-64
2022/01/11 03:47:02;;;;;;;157.23;39.90;;;6.60;99.90;;;;;;5071044;28;20021;-64
2022/01/11 03:49:28;;;;;;;131.85;38.20;;;6.80;99.90;;;;;;5069197;28;20032;-63
2022/01/11 03:51:54;;;;;;;43.33;27.02;;;6.80;99.90;;;;;;5068638;28;20115;-63
2022/01/11 03:54:26;;;;;;;61.10;31.45;;;6.80;99.90;;;;;;5067055;28;20023;-63
2022/01/11 03:56:52;;;;;;;97.25;37.60;;;6.80;99.90;;;;;;5066994;28;20150;-63
2022/01/11 03:59:19;;;;;;;120.68;35.65;;;6.60;99.90;;;;;;5068684;28;20037;-64
2022/01/11 04:01:45;;;;;;;63.22;24.88;;;6.60;99.90;;;;;;5069551;28;20024;-63
2022/01/11 04:04:12;;;;;;;147.45;37.22;;;6.50;99.90;;;;;;5067428;28;20058;-64
2022/01/11 04:06:38;;;;;;;67.18;22.70;;;6.40;99.90;;;;;;5070741;28;20028;-64
2022/01/11 04:09:05;;;;;;;122.07;33.58;;;6.50;99.90;;;;;;5070877;28;20024;-64
2022/01/11 04:11:32;;;;;;;97.20;27.80;;;6.40;99.90;;;;;;5055512;28;20098;-64
2022/01/11 04:13:58;;;;;;;96.85;28.23;;;6.30;99.90;;;;;;5070235;28;20107;-64
2022/01/11 04:16:23;;;;;;;69.63;23.52;;;6.30;99.90;;;;;;5072201;28;20108;-63
2022/01/11 04:18:49;;;;;;;90.97;24.48;;;6.30;99.90;;;;;;5070722;28;20123;-64
2022/01/11 04:21:15;;;;;;;66.43;21.23;;;6.20;99.90;;;;;;5072117;28;20021;-63
2022/01/11 04:23:41;;;;;;;83.07;26.00;;;6.20;99.90;;;;;;5070716;28;20446;-64
2022/01/11 04:26:07;;;;;;;69.85;24.30;;;6.10;99.90;;;;;;5073428;28;20024;-64
2022/01/11 04:28:33;;;;;;;53.42;26.98;;;6.00;99.90;;;;;;5071499;28;20027;-64
2022/01/11 04:31:00;;;;;;;60.97;35.30;;;5.90;99.90;;;;;;5072020;28;20031;-63
2022/01/11 04:33:27;;;;;;;214.50;38.15;;;5.90;99.90;;;;;;5070591;28;20054;-63
2022/01/11 04:35:53;;;;;;;51.95;23.33;;;6.00;99.90;;;;;;5070488;28;20025;-63
2022/01/11 04:38:24;;;;;;;33.67;20.77;;;5.90;99.90;;;;;;5072201;28;20453;-64
2022/01/11 04:40:51;;;;;;;22.85;16.73;;;5.80;99.90;;;;;;5073311;28;20583;-65
2022/01/11 04:43:17;;;;;;;24.33;18.17;;;5.90;99.90;;;;;;5070047;28;20448;-63
2022/01/11 04:45:43;;;;;;;23.80;17.50;;;5.90;99.90;;;;;;5070135;28;20055;-64
2022/01/11 04:48:09;;;;;;;26.17;18.50;;;5.80;99.90;;;;;;5070023;28;20024;-64
2022/01/11 04:50:36;;;;;;;22.70;17.40;;;5.70;99.90;;;;;;5070276;28;20038;-64
2022/01/11 04:53:02;;;;;;;95.80;73.88;;;5.40;99.90;;;;;;5074727;28;20017;-63
2022/01/11 04:55:28;;;;;;;44.53;32.92;;;5.30;99.90;;;;;;5071992;28;20032;-63
2022/01/11 04:57:54;;;;;;;53.22;43.42;;;5.50;99.90;;;;;;5067786;28;20078;-64
2022/01/11 05:00:23;;;;;;;23.30;20.13;;;5.60;99.90;;;;;;5071743;28;20024;-63
2022/01/11 05:02:49;;;;;;;21.92;16.08;;;5.50;99.90;;;;;;5070003;28;20372;-63
2022/01/11 05:05:15;;;;;;;32.53;19.70;;;5.40;99.90;;;;;;5070985;28;20032;-63
2022/01/11 05:07:42;;;;;;;19.05;14.68;;;5.30;99.90;;;;;;5071441;28;20033;-64
2022/01/11 05:10:08;;;;;;;24.23;17.85;;;5.40;99.90;;;;;;5071042;28;20028;-63
2022/01/11 05:12:34;;;;;;;25.73;17.75;;;5.30;99.90;;;;;;5069169;28;20025;-63
2022/01/11 05:15:01;;;;;;;18.20;14.63;;;5.20;99.90;;;;;;5070014;28;20099;-64
2022/01/11 05:17:26;;;;;;;22.60;15.77;;;5.20;99.90;;;;;;5070202;28;20179;-63
2022/01/11 05:19:52;;;;;;;22.00;15.07;;;5.10;99.90;;;;;;5072713;28;20100;-64
2022/01/11 05:22:18;;;;;;;20.67;15.73;;;5.10;99.90;;;;;;5069695;28;20032;-63
2022/01/11 05:24:43;;;;;;;20.98;14.52;;;5.10;99.90;;;;;;5069411;28;20025;-63
2022/01/11 05:27:09;;;;;;;27.95;20.75;;;5.00;99.90;;;;;;5069021;28;20479;-63
2022/01/11 05:29:35;;;;;;;49.28;30.60;;;4.90;99.90;;;;;;5069415;28;20025;-64
2022/01/11 05:32:03;;;;;;;18.38;13.50;;;4.90;99.90;;;;;;5073360;28;20032;-62
2022/01/11 05:34:29;;;;;;;27.30;20.38;;;4.80;99.90;;;;;;5071408;28;20053;-63
2022/01/11 05:36:54;;;;;;;39.35;31.17;;;4.60;99.90;;;;;;5068691;28;20067;-64
2022/01/11 05:39:20;;;;;;;44.10;30.75;;;4.50;99.90;;;;;;5069220;28;20546;-63
2022/01/11 05:41:46;;;;;;;22.42;18.42;;;4.60;99.90;;;;;;5068601;28;20099;-64
2022/01/11 05:44:11;;;;;;;135.35;28.05;;;4.60;99.90;;;;;;5071669;28;20035;-64
2022/01/11 05:46:37;;;;;;;32.55;21.77;;;4.40;99.90;;;;;;5070854;28;20064;-63
2022/01/11 05:49:03;;;;;;;20.10;13.93;;;4.20;99.90;;;;;;5070480;28;20016;-64
2022/01/11 05:51:29;;;;;;;13.10;11.48;;;4.20;99.90;;;;;;5069012;28;20024;-64
2022/01/11 05:53:55;;;;;;;53.45;18.63;;;4.20;99.90;;;;;;5069072;28;20123;-63
2022/01/11 05:56:21;;;;;;;17.15;14.73;;;4.20;99.90;;;;;;5070330;28;20032;-64
2022/01/11 05:58:47;;;;;;;18.25;14.63;;;4.20;99.90;;;;;;5071039;28;20040;-64
2022/01/11 06:01:14;;;;;;;16.38;11.98;;;4.20;99.90;;;;;;5068974;28;20040;-63
2022/01/11 06:03:40;;;;;;;23.90;15.30;;;4.40;99.90;;;;;;5068636;28;20036;-63
2022/01/11 06:06:06;;;;;;;48.38;38.13;;;4.60;99.90;;;;;;5068649;28;20036;-64
2022/01/11 06:08:32;;;;;;;109.93;83.35;;;4.60;99.90;;;;;;5069305;28;20051;-63
2022/01/11 06:10:58;;;;;;;55.10;41.35;;;4.50;99.90;;;;;;5071934;28;20028;-63
2022/01/11 06:13:24;;;;;;;88.25;41.47;;;4.60;99.90;;;;;;5070280;28;20083;-64
2022/01/11 06:15:51;;;;;;;84.57;30.83;;;4.50;99.90;;;;;;5068261;28;20368;-64
2022/01/11 06:18:17;;;;;;;81.95;30.95;;;4.50;99.90;;;;;;5069663;28;20059;-64
2022/01/11 06:20:43;;;;;;;160.85;37.88;;;4.40;99.90;;;;;;5068539;28;20027;-64
2022/01/11 06:23:09;;;;;;;80.28;28.88;;;4.50;99.90;;;;;;5071041;28;20028;-63
2022/01/11 06:25:36;;;;;;;142.77;43.42;;;4.40;99.90;;;;;;5071253;28;20024;-64
2022/01/11 06:28:02;;;;;;;94.20;32.30;;;4.40;99.90;;;;;;5068995;28;20028;-63
2022/01/11 06:30:28;;;;;;;181.95;46.47;;;4.30;99.90;;;;;;5068127;28;20497;-64
2022/01/11 06:32:55;;;;;;;74.70;34.03;;;4.20;99.90;;;;;;5068285;28;20025;-63
2022/01/11 06:35:22;;;;;;;53.92;29.13;;;4.20;99.90;;;;;;5069901;28;20560;-63
2022/01/11 06:37:48;;;;;;;49.22;28.48;;;4.10;99.90;;;;;;5070457;28;20482;-62
2022/01/11 06:40:16;;;;;;;57.95;30.33;;;4.10;99.90;;;;;;5067917;28;20039;-63
2022/01/11 06:42:43;;;;;;;72.00;31.77;;;4.00;99.90;;;;;;5067762;28;20516;-63
2022/01/11 06:45:10;;;;;;;90.95;41.42;;;4.00;99.90;;;;;;5067937;28;20040;-63
2022/01/11 06:47:36;;;;;;;66.57;42.22;;;4.00;99.90;;;;;;5067824;28;20040;-64
2022/01/11 06:50:02;;;;;;;53.90;34.53;;;3.90;99.90;;;;;;5072052;28;20025;-64
2022/01/11 06:52:27;;;;;;;117.60;74.10;;;3.90;99.90;;;;;;5069425;28;20039;-64
2022/01/11 06:54:53;;;;;;;76.57;57.85;;;3.80;99.90;;;;;;5067671;28;20050;-64
2022/01/11 06:57:19;;;;;;;211.27;151.32;;;3.80;99.90;;;;;;5068886;28;20467;-64
2022/01/11 06:59:45;;;;;;;162.40;123.88;;;3.70;99.90;;;;;;5067966;28;20028;-64
2022/01/11 07:02:10;;;;;;;90.45;72.90;;;3.70;99.90;;;;;;5070619;28;20081;-64
2022/01/11 07:04:37;;;;;;;215.23;178.63;;;3.60;99.90;;;;;;5069338;28;20103;-63
2022/01/11 07:07:05;;;;;;;69.82;55.90;;;3.70;99.90;;;;;;5069084;28;20039;-62
2022/01/11 07:09:31;;;;;;;43.17;33.00;;;3.70;99.90;;;;;;5067720;28;20123;-63
2022/01/11 07:11:56;;;;;;;25.30;19.52;;;3.60;99.90;;;;;;5067661;28;20099;-63
2022/01/11 07:14:22;;;;;;;97.53;85.10;;;3.60;99.90;;;;;;5069217;28;20045;-64
2022/01/11 07:16:48;;;;;;;97.90;84.63;;;3.50;99.90;;;;;;5069979;28;20025;-63
2022/01/11 07:19:18;;;;;;;48.28;43.05;;;3.40;99.90;;;;;;5067390;28;20409;-63
2022/01/11 07:21:44;;;;;;;51.53;38.25;;;3.20;99.90;;;;;;5067178;28;20036;-63
2022/01/11 07:24:15;;;;;;;31.38;24.77;;;3.30;99.90;;;;;;5067656;28;20040;-63
2022/01/11 07:26:41;;;;;;;31.55;26.92;;;3.40;99.90;;;;;;5067626;28;20021;-63
2022/01/11 07:29:08;;;;;;;27.30;22.05;;;3.30;99.90;;;;;;5070872;28;20115;-63
2022/01/11 07:31:36;;;;;;;28.83;22.55;;;3.40;99.90;;;;;;5070319;28;20553;-64
2022/01/11 07:34:03;;;;;;;27.58;21.42;;;3.30;99.90;;;;;;5067246;28;20051;-63
2022/01/11 07:36:29;;;;;;;26.17;22.05;;;3.40;99.90;;;;;;5069271;28;20069;-63
2022/01/11 07:38:56;;;;;;;27.63;20.05;;;3.30;99.90;;;;;;5068572;28;20029;-63
2022/01/11 07:41:22;;;;;;;37.67;24.00;;;3.30;99.90;;;;;;5073656;28;20029;-63
2022/01/11 07:43:47;;;;;;;53.83;35.72;;;3.00;99.90;;;;;;5074244;28;20027;-63
2022/01/11 07:46:13;;;;;;;43.97;31.58;;;2.90;99.90;;;;;;5073264;28;20103;-63
2022/01/11 07:48:39;;;;;;;59.60;36.10;;;3.00;99.90;;;;;;5071360;28;20024;-63
2022/01/11 07:51:05;;;;;;;102.85;73.63;;;3.20;99.90;;;;;;5071517;28;20029;-65
2022/01/11 07:53:31;;;;;;;73.10;53.63;;;3.30;99.90;;;;;;5072316;28;20016;-64
2022/01/11 07:55:57;;;;;;;42.95;35.47;;;3.30;99.90;;;;;;5075017;28;20055;-65
2022/01/11 07:58:23;;;;;;;45.13;37.67;;;3.30;99.90;;;;;;5071715;28;20522;-65
2022/01/11 08:00:48;;;;;;;53.90;43.63;;;3.20;99.90;;;;;;5071068;28;20032;-65
2022/01/11 08:03:14;;;;;;;46.90;37.80;;;3.20;99.90;;;;;;5071187;28;20029;-65
2022/01/11 08:05:40;;;;;;;40.22;35.05;;;3.30;99.90;;;;;;5070806;28;20021;-64
2022/01/11 08:08:06;;;;;;;43.53;37.03;;;3.30;99.90;;;;;;5074283;28;20029;-64
2022/01/11 08:10:32;;;;;;;39.97;35.30;;;3.40;99.90;;;;;;5072495;28;20025;-65
2022/01/11 08:12:58;;;;;;;44.33;39.83;;;3.50;99.90;;;;;;5070225;28;20100;-64
2022/01/11 08:15:24;;;;;;;42.25;36.53;;;3.80;99.90;;;;;;5071901;28;20044;-64
2022/01/11 08:17:49;;;;;;;49.85;35.25;;;3.90;99.90;;;;;;5070880;28;20079;-65
2022/01/11 08:20:15;;;;;;;53.05;47.47;;;3.90;99.90;;;;;;5072733;28;20040;-63
2022/01/11 08:22:41;;;;;;;27.83;24.90;;;4.30;99.90;;;;;;5071881;28;20020;-65
2022/01/11 08:25:08;;;;;;;25.05;19.45;;;4.70;99.90;;;;;;5070857;28;20020;-64
2022/01/11 08:27:33;;;;;;;15.75;14.10;;;4.20;99.90;;;;;;5070654;28;20506;-63
2022/01/11 08:30:01;;;;;;;14.00;11.32;;;4.00;99.90;;;;;;5070477;28;20013;-65
2022/01/11 08:32:26;;;;;;;11.30;10.10;;;3.90;99.90;;;;;;5071734;28;20028;-63
2022/01/11 08:34:52;;;;;;;10.38;8.88;;;5.20;99.90;;;;;;5073458;28;20040;-64
2022/01/11 08:37:18;;;;;;;10.48;8.70;;;7.00;99.90;;;;;;5070188;28;20055;-64
2022/01/11 08:39:44;;;;;;;10.85;9.25;;;7.90;99.90;;;;;;5070343;28;20035;-65
2022/01/11 08:42:13;;;;;;;11.60;9.93;;;8.40;99.90;;;;;;5069884;28;20039;-65
2022/01/11 08:44:46;;;;;;;10.40;9.50;;;8.80;99.90;;;;;;5070080;28;20044;-64
2022/01/11 08:47:12;;;;;;;20.52;17.80;;;9.30;99.90;;;;;;5072839;28;20447;-64
2022/01/11 08:49:39;;;;;;;27.38;22.38;;;9.40;99.90;;;;;;5072865;28;20103;-65
2022/01/11 08:52:05;;;;;;;22.42;20.13;;;9.50;99.90;;;;;;5069529;28;20031;-65
2022/01/11 08:54:31;;;;;;;15.23;13.70;;;9.50;99.90;;;;;;5071382;28;20095;-65
2022/01/11 08:56:57;;;;;;;14.60;13.10;;;10.60;99.90;;;;;;5069832;28;20052;-65
2022/01/11 08:59:25;;;;;;;16.10;12.45;;;10.60;99.90;;;;;;5071427;28;20059;-64
2022/01/11 09:01:52;;;;;;;14.25;12.75;;;11.50;99.90;;;;;;5072769;28;20032;-65
2022/01/11 09:04:19;;;;;;;14.85;13.35;;;10.70;99.90;;;;;;5071004;28;20432;-65
2022/01/11 09:06:45;;;;;;;13.32;11.88;;;10.30;99.90;;;;;;5070136;28;20036;-65
2022/01/11 09:09:11;;;;;;;13.27;11.98;;;11.00;99.90;;;;;;5069765;28;20025;-65
2022/01/11 09:11:37;;;;;;;16.48;12.82;;;11.40;99.90;;;;;;5069840;28;20028;-65
2022/01/11 09:14:03;;;;;;;15.13;12.65;;;11.30;99.90;;;;;;5074065;28;20028;-65
2022/01/11 09:16:29;;;;;;;19.92;16.40;;;11.70;99.90;;;;;;5069796;28;20036;-65
2022/01/11 09:18:54;;;;;;;18.73;16.38;;;12.00;99.90;;;;;;5069280;28;20041;-65
2022/01/11 09:21:22;;;;;;;14.70;13.25;;;12.20;99.90;;;;;;5069760;28;20127;-65
2022/01/11 09:23:49;;;;;;;13.13;11.75;;;11.70;99.90;;;;;;5069582;28;20120;-65
2022/01/11 09:26:15;;;;;;;13.73;10.88;;;12.60;99.90;;;;;;5071621;28;20026;-66
2022/01/11 09:28:41;;;;;;;9.00;8.15;;;12.10;99.90;;;;;;5073083;28;20082;-65
2022/01/11 09:31:07;;;;;;;9.15;8.25;;;12.20;99.90;;;;;;5069120;28;20033;-65
2022/01/11 09:33:34;;;;;;;8.35;7.60;;;12.60;99.90;;;;;;5070310;28;20060;-65
2022/01/11 09:36:00;;;;;;;7.97;6.95;;;13.20;99.90;;;;;;5069369;28;20032;-66
2022/01/11 09:38:28;;;;;;;8.07;7.18;;;13.60;99.90;;;;;;5070359;28;20040;-65
2022/01/11 09:40:56;;;;;;;7.25;6.57;;;13.60;99.90;;;;;;5072348;28;20418;-66
2022/01/11 09:43:24;;;;;;;8.98;6.72;;;14.20;99.90;;;;;;5070580;28;20050;-64
2022/01/11 09:45:52;;;;;;;7.75;6.93;;;15.90;99.90;;;;;;5069182;28;20104;-66
2022/01/11 09:48:32;;;;;;;9.18;7.85;;;15.20;99.90;;;;;;5068475;28;20025;-66
2022/01/11 09:50:58;;;;;;;11.05;9.32;;;16.40;99.90;;;;;;5069473;28;20025;-66
2022/01/11 09:53:25;;;;;;;9.98;8.98;;;17.10;99.90;;;;;;5070413;28;20033;-66
2022/01/11 09:55:51;;;;;;;9.68;8.63;;;17.40;99.90;;;;;;5071657;28;20056;-66
2022/01/11 09:58:18;;;;;;;11.23;9.48;;;17.50;99.90;;;;;;5067598;28;20064;-66
2022/01/11 10:00:43;;;;;;;12.10;9.77;;;16.60;99.90;;;;;;5068656;28;20087;-66
2022/01/11 10:03:10;;;;;;;10.90;9.63;;;18.00;99.90;;;;;;5067377;28;20025;-65
2022/01/11 10:05:37;;;;;;;8.70;7.82;;;17.90;99.90;;;;;;5070158;28;20469;-64
2022/01/11 10:08:22;;;;;;;9.10;7.93;;;17.40;99.90;;;;;;5072710;28;20537;-64
2022/01/11 10:10:48;;;;;;;8.35;7.20;;;16.80;99.90;;;;;;5071167;28;20078;-64
2022/01/11 10:13:35;;;;;;;9.30;7.80;;;16.40;99.90;;;;;;5069736;28;20025;-64
2022/01/11 10:16:25;;;;;;;9.30;6.93;;;17.20;99.90;;;;;;5068292;28;20029;-65
2022/01/11 10:18:52;;;;;;;8.38;7.55;;;16.70;99.90;;;;;;5068003;28;20056;-66
2022/01/11 10:21:41;;;;;;;8.65;6.97;;;15.80;99.90;;;;;;5069879;28;20491;-64
2022/01/11 10:24:33;;;;;;;8.85;6.60;;;17.50;99.90;;;;;;5068372;28;20485;-64
2022/01/11 10:27:17;;;;;;;7.85;7.05;;;17.20;99.90;;;;;;5054625;28;20039;-66
2022/01/11 10:29:48;;;;;;;7.00;6.30;;;17.40;99.90;;;;;;5053124;28;20026;-66
2022/01/11 10:32:38;;;;;;;6.95;6.18;;;18.30;99.90;;;;;;5069629;28;20090;-66
2022/01/11 10:35:18;;;;;;;7.25;5.68;;;20.10;99.90;;;;;;5108034;27;20385;-66
2022/01/11 10:37:47;;;;;;;7.28;5.85;;;20.60;99.90;;;;;;5093248;28;20056;-66
2022/01/11 10:40:25;;;;;;;6.57;5.90;;;19.70;99.90;;;;;;5093680;28;20509;-66
2022/01/11 10:42:57;;;;;;;9.10;5.90;;;18.70;99.90;;;;;;5093732;28;20035;-66
2022/01/11 10:45:33;;;;;;;6.95;4.82;;;18.30;99.90;;;;;;5092698;28;20036;-66
2022/01/11 10:48:08;;;;;;;7.75;4.50;;;19.10;99.90;;;;;;5105069;28;20028;-67
2022/01/11 10:50:39;;;;;;;5.82;4.60;;;19.90;99.90;;;;;;5090571;28;20066;-66
2022/01/11 10:53:11;;;;;;;6.28;5.00;;;19.00;99.90;;;;;;5105284;28;20035;-66
2022/01/11 10:55:37;;;;;;;6.00;4.57;;;18.60;99.90;;;;;;5103540;28;20036;-66
2022/01/11 10:58:10;;;;;;;7.25;4.38;;;18.60;99.90;;;;;;5096979;28;20032;-66
2022/01/11 11:00:50;;;;;;;7.43;4.72;;;18.10;99.90;;;;;;5094328;28;20081;-66
2022/01/11 11:03:18;;;;;;;7.30;4.30;;;17.80;99.90;;;;;;5103960;28;20424;-66
2022/01/11 11:06:11;;;;;;;7.28;3.80;;;17.60;99.90;;;;;;5090366;28;20051;-66
2022/01/11 11:08:41;;;;;;;6.28;3.47;;;17.90;99.90;;;;;;5087336;28;20473;-64
2022/01/11 11:11:20;;;;;;;5.85;3.90;;;18.80;99.90;;;;;;5091511;28;20031;-65
2022/01/11 11:13:49;;;;;;;5.05;3.50;;;17.80;99.90;;;;;;5092874;28;20036;-66
2022/01/11 11:16:17;;;;;;;7.10;3.30;;;17.70;99.90;;;;;;5092907;28;20099;-65
2022/01/11 11:18:45;;;;;;;4.35;2.92;;;18.40;99.90;;;;;;5093090;28;20024;-67
2022/01/11 11:21:21;;;;;;;5.00;3.30;;;17.50;99.90;;;;;;5093068;28;20031;-67
2022/01/11 11:23:53;;;;;;;6.07;3.28;;;17.50;99.90;;;;;;5090120;28;20063;-66
2022/01/11 11:26:21;;;;;;;6.28;3.15;;;17.20;99.90;;;;;;5104565;28;20028;-66
2022/01/11 11:28:47;;;;;;;5.03;3.00;;;17.30;99.90;;;;;;5092002;28;20032;-66
2022/01/11 11:31:13;;;;;;;6.32;3.30;;;17.20;99.90;;;;;;5099324;28;20034;-66
2022/01/11 11:33:41;;;;;;;5.82;3.28;;;17.10;99.90;;;;;;5099949;28;20123;-65
2022/01/11 11:36:11;;;;;;;6.13;3.10;;;17.20;99.90;;;;;;5092762;28;20035;-66
2022/01/11 11:38:43;;;;;;;6.30;3.10;;;17.90;99.90;;;;;;5089841;28;20174;-66
2022/01/11 11:41:10;;;;;;;6.47;3.22;;;17.70;99.90;;;;;;5104201;28;20020;-66
2022/01/11 11:43:36;;;;;;;5.10;4.25;;;16.70;99.90;;;;;;5102519;28;20016;-66
2022/01/11 11:46:02;;;;;;;11.52;9.20;;;17.30;99.90;;;;;;5085745;28;20040;-66
2022/01/11 11:48:28;;;;;;;50.00;38.80;;;17.30;99.90;;;;;;5079175;28;20020;-67
2022/01/11 11:51:07;;;;;;;272.58;223.05;;;17.40;99.90;;;;;;5077714;28;20405;-66
2022/01/11 11:53:34;;;;;;;24.98;21.92;;;18.30;99.90;;;;;;5074780;28;20032;-66
2022/01/11 11:56:18;;;;;;;9.13;5.18;;;17.80;99.90;;;;;;5090561;28;20035;-67
2022/01/11 11:58:52;;;;;;;3.45;2.08;;;18.20;99.90;;;;;;5078420;28;20020;-68
2022/01/11 12:01:42;;;;;;;5.93;2.45;;;17.60;99.90;;;;;;5078854;28;20037;-68
2022/01/11 12:04:14;;;;;;;5.68;2.90;;;16.00;99.90;;;;;;5084622;28;20122;-68
2022/01/11 12:06:41;;;;;;;3.60;2.85;;;14.50;99.90;;;;;;5085340;28;20473;-67
2022/01/11 12:09:10;;;;;;;4.57;2.33;;;15.40;99.90;;;;;;5076084;28;20035;-67
2022/01/11 12:11:39;;;;;;;4.47;2.35;;;14.00;99.90;;;;;;5090331;28;20016;-65
2022/01/11 12:14:05;;;;;;;4.45;2.00;;;16.70;99.90;;;;;;5076894;28;20071;-67
2022/01/11 12:16:35;;;;;;;3.70;1.90;;;14.40;99.90;;;;;;5078898;28;20027;-67
2022/01/11 12:19:06;;;;;;;3.65;2.30;;;13.80;99.90;;;;;;5083635;28;20459;-67
2022/01/11 12:21:49;;;;;;;2.58;1.75;;;15.40;99.90;;;;;;5086051;28;20099;-66
2022/01/11 12:24:36;;;;;;;3.92;2.10;;;14.60;97.40;;;;;;5078723;28;20039;-67
2022/01/11 12:27:03;;;;;;;2.45;1.60;;;13.90;97.80;;;;;;5077944;28;20616;-66
2022/01/11 12:29:29;;;;;;;8.57;5.30;;;13.80;99.90;;;;;;5074462;28;20074;-67
2022/01/11 12:32:00;;;;;;;7.28;4.03;;;14.30;99.90;;;;;;5077944;28;20021;-67
2022/01/11 12:34:45;;;;;;;7.18;3.80;;;15.10;99.90;;;;;;5077883;28;20401;-67
2022/01/11 12:37:40;;;;;;;2.72;1.77;;;13.60;99.90;;;;;;5077895;28;20020;-67
2022/01/11 12:40:09;;;;;;;16.17;9.15;;;13.00;99.90;;;;;;5077642;28;20040;-67
2022/01/11 12:42:36;;;;;;;3.65;2.17;;;13.80;99.90;;;;;;5078692;28;20036;-67
2022/01/11 12:47:46;;;;;;;5.30;1.90;;;12.90;99.90;;;;;;5074904;28;20078;-67